sensor_id;sensor_type;location;lat;lon;timestamp;temperature;humidity
360;DHT22;168;48.872;9.226;2022-07-29T00:00:44;23.80;83.60
360;DHT22;168;48.872;9.226;2022-07-29T00:03:29;23.80;83.60
360;DHT22;168;48.872;9.226;2022-07-29T00:06:01;23.70;84.00
360;DHT22;168;48.872;9.226;2022-07-29T00:08:33;23.60;84.60
360;DHT22;168;48.872;9.226;2022-07-29T00:11:02;23.40;85.20
360;DHT22;168;48.872;9.226;2022-07-29T00:13:31;23.40;85.20
360;DHT22;168;48.872;9.226;2022-07-29T00:16:16;23.30;85.80
360;DHT22;168;48.872;9.226;2022-07-29T00:18:51;23.10;86.30
360;DHT22;168;48.872;9.226;2022-07-29T00:21:38;22.90;86.80
360;DHT22;168;48.872;9.226;2022-07-29T00:24:18;22.60;87.20
360;DHT22;168;48.872;9.226;2022-07-29T00:26:54;22.50;87.30
360;DHT22;168;48.872;9.226;2022-07-29T00:42:41;22.10;87.90
360;DHT22;168;48.872;9.226;2022-07-29T00:45:09;22.00;88.30
360;DHT22;168;48.872;9.226;2022-07-29T00:47:37;21.90;88.50
360;DHT22;168;48.872;9.226;2022-07-29T00:50:06;21.80;88.60
360;DHT22;168;48.872;9.226;2022-07-29T00:52:35;21.70;88.80
360;DHT22;168;48.872;9.226;2022-07-29T00:55:04;21.60;88.90
360;DHT22;168;48.872;9.226;2022-07-29T00:57:34;21.50;89.00
360;DHT22;168;48.872;9.226;2022-07-29T01:00:03;21.40;89.10
360;DHT22;168;48.872;9.226;2022-07-29T01:02:31;21.30;89.40
360;DHT22;168;48.872;9.226;2022-07-29T01:04:58;21.30;89.40
360;DHT22;168;48.872;9.226;2022-07-29T01:07:26;21.20;89.50
360;DHT22;168;48.872;9.226;2022-07-29T01:09:55;21.10;89.60
360;DHT22;168;48.872;9.226;2022-07-29T01:12:25;21.10;89.70
360;DHT22;168;48.872;9.226;2022-07-29T01:14:55;21.00;89.60
360;DHT22;168;48.872;9.226;2022-07-29T01:17:26;21.00;89.80
360;DHT22;168;48.872;9.226;2022-07-29T01:19:59;20.90;89.90
360;DHT22;168;48.872;9.226;2022-07-29T01:22:55;20.90;89.90
360;DHT22;168;48.872;9.226;2022-07-29T01:25:50;20.80;90.10
360;DHT22;168;48.872;9.226;2022-07-29T01:28:38;20.60;90.20
360;DHT22;168;48.872;9.226;2022-07-29T01:31:08;20.60;90.20
360;DHT22;168;48.872;9.226;2022-07-29T01:33:41;20.50;90.20
360;DHT22;168;48.872;9.226;2022-07-29T01:36:22;20.50;90.20
360;DHT22;168;48.872;9.226;2022-07-29T01:38:57;20.50;90.30
360;DHT22;168;48.872;9.226;2022-07-29T01:41:27;20.50;90.30
360;DHT22;168;48.872;9.226;2022-07-29T01:44:02;20.40;90.30
360;DHT22;168;48.872;9.226;2022-07-29T01:46:34;20.40;90.40
360;DHT22;168;48.872;9.226;2022-07-29T01:49:08;20.30;90.40
360;DHT22;168;48.872;9.226;2022-07-29T01:51:41;20.30;90.40
360;DHT22;168;48.872;9.226;2022-07-29T01:54:14;20.30;90.40
360;DHT22;168;48.872;9.226;2022-07-29T01:56:44;20.20;90.40
360;DHT22;168;48.872;9.226;2022-07-29T01:59:14;20.10;90.40
360;DHT22;168;48.872;9.226;2022-07-29T02:01:43;20.10;90.50
360;DHT22;168;48.872;9.226;2022-07-29T02:04:13;20.00;90.50
360;DHT22;168;48.872;9.226;2022-07-29T02:06:42;19.90;90.50
360;DHT22;168;48.872;9.226;2022-07-29T02:09:13;19.90;90.50
360;DHT22;168;48.872;9.226;2022-07-29T02:11:47;19.90;90.50
360;DHT22;168;48.872;9.226;2022-07-29T02:14:18;19.80;90.50
360;DHT22;168;48.872;9.226;2022-07-29T02:16:47;19.80;90.50
360;DHT22;168;48.872;9.226;2022-07-29T02:19:17;19.80;90.50
360;DHT22;168;48.872;9.226;2022-07-29T02:21:46;19.70;90.40
360;DHT22;168;48.872;9.226;2022-07-29T02:24:16;19.70;90.50
360;DHT22;168;48.872;9.226;2022-07-29T02:26:46;19.70;90.40
360;DHT22;168;48.872;9.226;2022-07-29T02:29:16;19.70;90.50
360;DHT22;168;48.872;9.226;2022-07-29T02:31:44;19.70;90.50
360;DHT22;168;48.872;9.226;2022-07-29T02:34:13;19.70;90.50
360;DHT22;168;48.872;9.226;2022-07-29T02:36:43;19.60;90.50
360;DHT22;168;48.872;9.226;2022-07-29T02:39:12;19.60;90.50
360;DHT22;168;48.872;9.226;2022-07-29T02:41:43;19.60;90.50
360;DHT22;168;48.872;9.226;2022-07-29T02:44:13;19.50;90.50
360;DHT22;168;48.872;9.226;2022-07-29T02:46:46;19.50;90.60
360;DHT22;168;48.872;9.226;2022-07-29T02:49:18;19.50;90.70
360;DHT22;168;48.872;9.226;2022-07-29T02:51:53;19.30;90.60
360;DHT22;168;48.872;9.226;2022-07-29T02:54:26;19.30;90.60
360;DHT22;168;48.872;9.226;2022-07-29T02:56:55;19.20;90.70
360;DHT22;168;48.872;9.226;2022-07-29T02:59:26;19.10;90.60
360;DHT22;168;48.872;9.226;2022-07-29T03:01:58;19.00;90.50
360;DHT22;168;48.872;9.226;2022-07-29T03:04:27;18.80;90.40
360;DHT22;168;48.872;9.226;2022-07-29T03:06:58;18.70;90.20
360;DHT22;168;48.872;9.226;2022-07-29T03:09:26;18.60;90.00
360;DHT22;168;48.872;9.226;2022-07-29T03:11:55;18.60;90.00
360;DHT22;168;48.872;9.226;2022-07-29T03:14:23;18.60;90.00
360;DHT22;168;48.872;9.226;2022-07-29T03:16:51;18.70;90.00
360;DHT22;168;48.872;9.226;2022-07-29T03:19:21;18.80;90.10
360;DHT22;168;48.872;9.226;2022-07-29T03:21:49;18.90;90.20
360;DHT22;168;48.872;9.226;2022-07-29T03:24:30;18.90;90.30
360;DHT22;168;48.872;9.226;2022-07-29T03:26:58;18.90;90.40
360;DHT22;168;48.872;9.226;2022-07-29T03:29:26;19.00;90.40
360;DHT22;168;48.872;9.226;2022-07-29T03:31:53;19.00;90.40
360;DHT22;168;48.872;9.226;2022-07-29T03:34:22;19.00;90.50
360;DHT22;168;48.872;9.226;2022-07-29T03:36:50;19.10;90.60
360;DHT22;168;48.872;9.226;2022-07-29T03:39:20;19.10;90.50
360;DHT22;168;48.872;9.226;2022-07-29T03:41:51;19.10;90.50
360;DHT22;168;48.872;9.226;2022-07-29T03:44:20;19.10;90.50
360;DHT22;168;48.872;9.226;2022-07-29T03:46:50;19.10;90.60
360;DHT22;168;48.872;9.226;2022-07-29T03:49:18;19.20;90.70
360;DHT22;168;48.872;9.226;2022-07-29T03:51:48;19.20;90.60
360;DHT22;168;48.872;9.226;2022-07-29T03:54:16;19.20;90.50
360;DHT22;168;48.872;9.226;2022-07-29T03:56:45;19.30;90.60
360;DHT22;168;48.872;9.226;2022-07-29T03:59:15;19.30;90.60
360;DHT22;168;48.872;9.226;2022-07-29T04:01:43;19.40;90.60
360;DHT22;168;48.872;9.226;2022-07-29T04:04:11;19.40;90.60
360;DHT22;168;48.872;9.226;2022-07-29T04:06:40;19.40;90.70
360;DHT22;168;48.872;9.226;2022-07-29T04:09:09;19.40;90.70
360;DHT22;168;48.872;9.226;2022-07-29T04:11:38;19.50;90.80
360;DHT22;168;48.872;9.226;2022-07-29T04:14:06;19.50;90.80
360;DHT22;168;48.872;9.226;2022-07-29T04:16:33;19.50;90.80
360;DHT22;168;48.872;9.226;2022-07-29T04:19:01;19.50;90.80
360;DHT22;168;48.872;9.226;2022-07-29T04:21:28;19.60;90.90
360;DHT22;168;48.872;9.226;2022-07-29T04:23:55;19.60;90.90
360;DHT22;168;48.872;9.226;2022-07-29T04:26:24;19.70;91.00
360;DHT22;168;48.872;9.226;2022-07-29T04:28:52;19.60;90.90
360;DHT22;168;48.872;9.226;2022-07-29T04:31:19;19.60;90.90
360;DHT22;168;48.872;9.226;2022-07-29T04:33:46;19.60;90.90
360;DHT22;168;48.872;9.226;2022-07-29T04:36:14;19.60;91.00
360;DHT22;168;48.872;9.226;2022-07-29T04:38:41;19.70;91.00
360;DHT22;168;48.872;9.226;2022-07-29T04:41:09;19.70;90.90
360;DHT22;168;48.872;9.226;2022-07-29T04:43:37;19.80;90.90
360;DHT22;168;48.872;9.226;2022-07-29T04:46:06;20.00;91.00
360;DHT22;168;48.872;9.226;2022-07-29T04:48:33;20.10;91.00
360;DHT22;168;48.872;9.226;2022-07-29T04:51:01;20.20;91.00
360;DHT22;168;48.872;9.226;2022-07-29T04:53:29;20.30;91.00
360;DHT22;168;48.872;9.226;2022-07-29T04:55:57;20.30;91.00
360;DHT22;168;48.872;9.226;2022-07-29T04:58:24;20.40;91.00
360;DHT22;168;48.872;9.226;2022-07-29T05:00:53;20.40;90.90
360;DHT22;168;48.872;9.226;2022-07-29T05:03:21;20.50;90.80
360;DHT22;168;48.872;9.226;2022-07-29T05:05:48;20.50;90.80
360;DHT22;168;48.872;9.226;2022-07-29T05:08:16;20.50;90.80
360;DHT22;168;48.872;9.226;2022-07-29T05:10:43;20.70;90.90
360;DHT22;168;48.872;9.226;2022-07-29T05:13:11;20.80;90.80
360;DHT22;168;48.872;9.226;2022-07-29T05:15:39;21.00;90.70
360;DHT22;168;48.872;9.226;2022-07-29T05:18:07;21.00;90.60
360;DHT22;168;48.872;9.226;2022-07-29T05:20:36;21.20;90.60
360;DHT22;168;48.872;9.226;2022-07-29T05:23:03;21.50;90.40
360;DHT22;168;48.872;9.226;2022-07-29T05:25:31;21.60;90.30
360;DHT22;168;48.872;9.226;2022-07-29T05:27:59;21.80;90.20
360;DHT22;168;48.872;9.226;2022-07-29T05:30:26;22.00;90.00
360;DHT22;168;48.872;9.226;2022-07-29T05:32:53;22.20;89.80
360;DHT22;168;48.872;9.226;2022-07-29T05:35:22;22.20;89.70
360;DHT22;168;48.872;9.226;2022-07-29T05:37:50;22.40;89.60
360;DHT22;168;48.872;9.226;2022-07-29T05:40:17;22.40;89.60
360;DHT22;168;48.872;9.226;2022-07-29T05:42:44;22.40;89.60
360;DHT22;168;48.872;9.226;2022-07-29T05:45:12;22.40;89.60
360;DHT22;168;48.872;9.226;2022-07-29T05:47:39;22.60;89.30
360;DHT22;168;48.872;9.226;2022-07-29T05:50:07;22.70;89.20
360;DHT22;168;48.872;9.226;2022-07-29T05:52:37;22.90;89.00
360;DHT22;168;48.872;9.226;2022-07-29T05:55:05;22.90;88.80
360;DHT22;168;48.872;9.226;2022-07-29T05:57:33;23.00;88.80
360;DHT22;168;48.872;9.226;2022-07-29T06:00:01;23.10;88.60
360;DHT22;168;48.872;9.226;2022-07-29T06:02:28;23.20;88.20
360;DHT22;168;48.872;9.226;2022-07-29T06:04:55;23.30;88.10
360;DHT22;168;48.872;9.226;2022-07-29T06:07:23;23.50;87.70
360;DHT22;168;48.872;9.226;2022-07-29T06:09:52;23.60;88.10
360;DHT22;168;48.872;9.226;2022-07-29T06:12:19;23.70;87.40
360;DHT22;168;48.872;9.226;2022-07-29T06:14:47;23.90;86.90
360;DHT22;168;48.872;9.226;2022-07-29T06:17:16;24.00;86.40
360;DHT22;168;48.872;9.226;2022-07-29T06:19:43;24.10;86.20
360;DHT22;168;48.872;9.226;2022-07-29T06:22:10;24.20;86.10
360;DHT22;168;48.872;9.226;2022-07-29T06:24:38;24.30;85.90
360;DHT22;168;48.872;9.226;2022-07-29T06:27:11;24.50;85.10
360;DHT22;168;48.872;9.226;2022-07-29T06:29:38;24.70;84.80
360;DHT22;168;48.872;9.226;2022-07-29T06:32:06;24.80;84.30
360;DHT22;168;48.872;9.226;2022-07-29T06:34:35;24.90;83.80
360;DHT22;168;48.872;9.226;2022-07-29T06:37:06;24.90;83.90
360;DHT22;168;48.872;9.226;2022-07-29T06:39:34;25.00;83.90
360;DHT22;168;48.872;9.226;2022-07-29T06:42:03;25.10;83.90
360;DHT22;168;48.872;9.226;2022-07-29T06:44:32;25.10;83.90
360;DHT22;168;48.872;9.226;2022-07-29T06:47:00;25.20;83.60
360;DHT22;168;48.872;9.226;2022-07-29T06:49:28;25.20;83.30
360;DHT22;168;48.872;9.226;2022-07-29T06:51:56;25.30;82.80
360;DHT22;168;48.872;9.226;2022-07-29T06:54:23;25.30;82.80
360;DHT22;168;48.872;9.226;2022-07-29T06:56:50;25.40;82.70
360;DHT22;168;48.872;9.226;2022-07-29T06:59:18;25.40;82.70
360;DHT22;168;48.872;9.226;2022-07-29T07:01:47;25.40;82.60
360;DHT22;168;48.872;9.226;2022-07-29T07:04:14;25.30;82.90
360;DHT22;168;48.872;9.226;2022-07-29T07:06:42;25.30;82.90
360;DHT22;168;48.872;9.226;2022-07-29T07:09:09;25.40;82.00
360;DHT22;168;48.872;9.226;2022-07-29T07:11:37;25.50;81.60
360;DHT22;168;48.872;9.226;2022-07-29T07:14:04;25.50;81.80
360;DHT22;168;48.872;9.226;2022-07-29T07:16:33;25.50;81.60
360;DHT22;168;48.872;9.226;2022-07-29T07:19:02;25.50;81.30
360;DHT22;168;48.872;9.226;2022-07-29T07:21:29;25.60;81.80
360;DHT22;168;48.872;9.226;2022-07-29T07:23:57;25.60;81.50
360;DHT22;168;48.872;9.226;2022-07-29T07:26:24;25.60;81.50
360;DHT22;168;48.872;9.226;2022-07-29T07:28:52;25.60;81.30
360;DHT22;168;48.872;9.226;2022-07-29T07:31:19;25.60;81.00
360;DHT22;168;48.872;9.226;2022-07-29T07:33:47;25.50;81.10
360;DHT22;168;48.872;9.226;2022-07-29T07:36:15;25.50;81.50
360;DHT22;168;48.872;9.226;2022-07-29T07:38:43;25.60;81.20
360;DHT22;168;48.872;9.226;2022-07-29T07:41:10;25.60;81.30
360;DHT22;168;48.872;9.226;2022-07-29T07:43:37;25.70;81.40
360;DHT22;168;48.872;9.226;2022-07-29T07:46:05;25.80;80.90
360;DHT22;168;48.872;9.226;2022-07-29T07:48:34;26.00;80.20
360;DHT22;168;48.872;9.226;2022-07-29T07:51:02;26.30;79.00
360;DHT22;168;48.872;9.226;2022-07-29T07:53:31;26.40;78.80
360;DHT22;168;48.872;9.226;2022-07-29T07:55:58;26.60;78.80
360;DHT22;168;48.872;9.226;2022-07-29T07:58:27;26.80;77.50
360;DHT22;168;48.872;9.226;2022-07-29T08:00:54;27.00;77.50
360;DHT22;168;48.872;9.226;2022-07-29T08:03:22;27.20;76.80
360;DHT22;168;48.872;9.226;2022-07-29T08:05:50;27.30;76.00
360;DHT22;168;48.872;9.226;2022-07-29T08:08:17;27.40;75.80
360;DHT22;168;48.872;9.226;2022-07-29T08:10:47;27.50;74.20
360;DHT22;168;48.872;9.226;2022-07-29T08:13:23;27.60;73.90
360;DHT22;168;48.872;9.226;2022-07-29T08:15:51;27.80;73.80
360;DHT22;168;48.872;9.226;2022-07-29T08:18:24;27.90;73.40
360;DHT22;168;48.872;9.226;2022-07-29T08:20:52;28.00;72.60
360;DHT22;168;48.872;9.226;2022-07-29T08:23:20;28.00;72.30
360;DHT22;168;48.872;9.226;2022-07-29T08:25:50;27.90;72.20
360;DHT22;168;48.872;9.226;2022-07-29T08:28:17;27.80;73.10
360;DHT22;168;48.872;9.226;2022-07-29T08:30:45;27.60;73.20
360;DHT22;168;48.872;9.226;2022-07-29T08:33:13;27.60;73.40
360;DHT22;168;48.872;9.226;2022-07-29T08:35:40;27.60;73.10
360;DHT22;168;48.872;9.226;2022-07-29T08:38:08;27.60;72.60
360;DHT22;168;48.872;9.226;2022-07-29T08:40:36;27.60;72.70
360;DHT22;168;48.872;9.226;2022-07-29T08:43:05;27.60;72.70
360;DHT22;168;48.872;9.226;2022-07-29T08:45:42;27.20;73.00
360;DHT22;168;48.872;9.226;2022-07-29T08:48:12;27.00;74.20
360;DHT22;168;48.872;9.226;2022-07-29T08:50:40;26.80;73.90
360;DHT22;168;48.872;9.226;2022-07-29T08:53:10;26.80;74.00
360;DHT22;168;48.872;9.226;2022-07-29T08:55:39;26.70;75.60
360;DHT22;168;48.872;9.226;2022-07-29T08:58:14;26.80;76.00
360;DHT22;168;48.872;9.226;2022-07-29T09:00:43;26.90;74.70
360;DHT22;168;48.872;9.226;2022-07-29T09:03:14;27.00;72.80
360;DHT22;168;48.872;9.226;2022-07-29T09:05:42;26.90;67.90
360;DHT22;168;48.872;9.226;2022-07-29T09:08:10;26.70;68.70
360;DHT22;168;48.872;9.226;2022-07-29T09:10:38;26.50;69.90
360;DHT22;168;48.872;9.226;2022-07-29T09:13:07;26.50;70.30
360;DHT22;168;48.872;9.226;2022-07-29T09:15:35;26.50;71.10
360;DHT22;168;48.872;9.226;2022-07-29T09:18:02;26.50;70.30
360;DHT22;168;48.872;9.226;2022-07-29T09:20:30;26.60;70.80
360;DHT22;168;48.872;9.226;2022-07-29T09:23:13;26.70;70.30
360;DHT22;168;48.872;9.226;2022-07-29T09:25:41;26.70;70.20
360;DHT22;168;48.872;9.226;2022-07-29T09:39:12;27.20;69.20
360;DHT22;168;48.872;9.226;2022-07-29T10:09:21;27.30;67.50
360;DHT22;168;48.872;9.226;2022-07-29T10:15:00;26.90;68.60
360;DHT22;168;48.872;9.226;2022-07-29T10:18:05;27.00;67.80
360;DHT22;168;48.872;9.226;2022-07-29T10:20:34;27.00;67.80
360;DHT22;168;48.872;9.226;2022-07-29T10:34:30;26.70;68.90
360;DHT22;168;48.872;9.226;2022-07-29T10:43:46;27.10;68.20
360;DHT22;168;48.872;9.226;2022-07-29T10:46:16;27.10;68.40
360;DHT22;168;48.872;9.226;2022-07-29T10:49:06;27.00;68.80
360;DHT22;168;48.872;9.226;2022-07-29T10:51:58;26.90;68.90
360;DHT22;168;48.872;9.226;2022-07-29T10:55:05;26.90;69.30
360;DHT22;168;48.872;9.226;2022-07-29T10:57:38;26.90;69.50
360;DHT22;168;48.872;9.226;2022-07-29T11:00:28;27.00;68.30
360;DHT22;168;48.872;9.226;2022-07-29T11:02:55;27.10;68.30
360;DHT22;168;48.872;9.226;2022-07-29T11:05:24;27.20;68.50
360;DHT22;168;48.872;9.226;2022-07-29T11:08:22;27.20;68.00
360;DHT22;168;48.872;9.226;2022-07-29T11:10:53;27.20;68.00
360;DHT22;168;48.872;9.226;2022-07-29T11:13:51;27.20;68.00
360;DHT22;168;48.872;9.226;2022-07-29T11:16:21;27.30;67.70
360;DHT22;168;48.872;9.226;2022-07-29T11:19:23;27.20;66.90
360;DHT22;168;48.872;9.226;2022-07-29T11:21:52;27.10;67.20
360;DHT22;168;48.872;9.226;2022-07-29T11:24:23;27.00;67.50
360;DHT22;168;48.872;9.226;2022-07-29T11:27:14;27.00;68.20
360;DHT22;168;48.872;9.226;2022-07-29T11:29:53;27.20;67.80
360;DHT22;168;48.872;9.226;2022-07-29T11:32:24;27.20;69.00
360;DHT22;168;48.872;9.226;2022-07-29T11:35:10;27.30;69.60
360;DHT22;168;48.872;9.226;2022-07-29T11:37:38;27.30;70.60
360;DHT22;168;48.872;9.226;2022-07-29T11:40:20;27.40;70.90
360;DHT22;168;48.872;9.226;2022-07-29T11:42:49;27.60;71.20
360;DHT22;168;48.872;9.226;2022-07-29T11:45:26;27.70;72.20
360;DHT22;168;48.872;9.226;2022-07-29T11:48:16;27.80;73.60
360;DHT22;168;48.872;9.226;2022-07-29T11:50:44;27.80;74.10
360;DHT22;168;48.872;9.226;2022-07-29T11:53:16;27.90;74.10
360;DHT22;168;48.872;9.226;2022-07-29T11:55:55;27.90;75.00
360;DHT22;168;48.872;9.226;2022-07-29T11:58:27;27.90;76.00
360;DHT22;168;48.872;9.226;2022-07-29T12:00:55;27.80;77.50
360;DHT22;168;48.872;9.226;2022-07-29T12:03:25;27.80;77.70
360;DHT22;168;48.872;9.226;2022-07-29T12:05:53;27.70;77.00
360;DHT22;168;48.872;9.226;2022-07-29T12:08:26;27.80;76.00
360;DHT22;168;48.872;9.226;2022-07-29T12:10:58;27.80;74.30
360;DHT22;168;48.872;9.226;2022-07-29T12:13:38;27.70;73.90
360;DHT22;168;48.872;9.226;2022-07-29T12:16:06;27.80;74.40
360;DHT22;168;48.872;9.226;2022-07-29T12:18:33;27.90;73.60
360;DHT22;168;48.872;9.226;2022-07-29T12:21:02;28.10;72.80
360;DHT22;168;48.872;9.226;2022-07-29T12:23:30;28.30;72.30
360;DHT22;168;48.872;9.226;2022-07-29T12:26:05;28.40;71.80
360;DHT22;168;48.872;9.226;2022-07-29T12:28:40;28.60;70.50
360;DHT22;168;48.872;9.226;2022-07-29T12:31:13;28.50;69.20
360;DHT22;168;48.872;9.226;2022-07-29T12:33:41;28.40;67.70
360;DHT22;168;48.872;9.226;2022-07-29T12:36:08;28.40;67.50
360;DHT22;168;48.872;9.226;2022-07-29T12:38:37;28.30;67.30
360;DHT22;168;48.872;9.226;2022-07-29T12:41:09;28.20;67.10
360;DHT22;168;48.872;9.226;2022-07-29T12:43:37;28.10;66.20
360;DHT22;168;48.872;9.226;2022-07-29T12:46:13;28.10;65.70
360;DHT22;168;48.872;9.226;2022-07-29T12:48:42;28.10;66.30
360;DHT22;168;48.872;9.226;2022-07-29T12:51:11;28.10;65.00
360;DHT22;168;48.872;9.226;2022-07-29T12:53:40;27.90;64.70
360;DHT22;168;48.872;9.226;2022-07-29T12:56:15;27.90;65.20
360;DHT22;168;48.872;9.226;2022-07-29T12:58:43;27.80;65.20
360;DHT22;168;48.872;9.226;2022-07-29T13:01:14;27.80;65.40
360;DHT22;168;48.872;9.226;2022-07-29T13:03:48;27.80;65.80
360;DHT22;168;48.872;9.226;2022-07-29T13:06:35;27.90;66.40
360;DHT22;168;48.872;9.226;2022-07-29T13:09:08;27.90;66.30
360;DHT22;168;48.872;9.226;2022-07-29T13:11:39;28.00;66.70
360;DHT22;168;48.872;9.226;2022-07-29T13:14:08;28.20;66.30
360;DHT22;168;48.872;9.226;2022-07-29T13:17:01;28.20;66.60
360;DHT22;168;48.872;9.226;2022-07-29T13:19:37;28.10;66.80
360;DHT22;168;48.872;9.226;2022-07-29T13:22:10;27.90;67.10
360;DHT22;168;48.872;9.226;2022-07-29T13:24:48;27.60;67.90
360;DHT22;168;48.872;9.226;2022-07-29T13:27:18;27.40;68.70
360;DHT22;168;48.872;9.226;2022-07-29T13:29:46;27.40;70.10
360;DHT22;168;48.872;9.226;2022-07-29T13:32:14;27.30;69.80
360;DHT22;168;48.872;9.226;2022-07-29T13:34:43;27.20;70.30
360;DHT22;168;48.872;9.226;2022-07-29T13:37:10;27.00;71.10
360;DHT22;168;48.872;9.226;2022-07-29T13:39:38;27.00;73.30
360;DHT22;168;48.872;9.226;2022-07-29T13:42:07;26.90;73.70
360;DHT22;168;48.872;9.226;2022-07-29T13:44:36;26.80;75.20
360;DHT22;168;48.872;9.226;2022-07-29T13:47:04;26.70;75.70
360;DHT22;168;48.872;9.226;2022-07-29T13:49:34;26.70;75.90
360;DHT22;168;48.872;9.226;2022-07-29T13:52:03;26.70;77.40
360;DHT22;168;48.872;9.226;2022-07-29T13:54:42;26.70;78.80
360;DHT22;168;48.872;9.226;2022-07-29T13:57:10;26.80;79.30
360;DHT22;168;48.872;9.226;2022-07-29T13:59:39;26.80;80.90
360;DHT22;168;48.872;9.226;2022-07-29T14:02:09;26.90;78.90
360;DHT22;168;48.872;9.226;2022-07-29T14:04:37;26.90;79.40
360;DHT22;168;48.872;9.226;2022-07-29T14:07:06;26.90;78.90
360;DHT22;168;48.872;9.226;2022-07-29T14:09:36;26.90;79.10
360;DHT22;168;48.872;9.226;2022-07-29T14:12:08;27.00;78.70
360;DHT22;168;48.872;9.226;2022-07-29T14:14:36;27.00;77.80
360;DHT22;168;48.872;9.226;2022-07-29T14:17:05;27.00;78.30
360;DHT22;168;48.872;9.226;2022-07-29T14:19:33;27.10;78.00
360;DHT22;168;48.872;9.226;2022-07-29T14:22:04;27.30;77.70
360;DHT22;168;48.872;9.226;2022-07-29T14:24:34;27.50;76.60
360;DHT22;168;48.872;9.226;2022-07-29T14:27:02;27.70;76.20
360;DHT22;168;48.872;9.226;2022-07-29T14:29:39;27.90;75.40
360;DHT22;168;48.872;9.226;2022-07-29T14:32:08;28.00;75.10
360;DHT22;168;48.872;9.226;2022-07-29T14:34:38;28.10;74.40
360;DHT22;168;48.872;9.226;2022-07-29T14:37:06;28.20;73.90
360;DHT22;168;48.872;9.226;2022-07-29T14:39:35;28.20;73.70
360;DHT22;168;48.872;9.226;2022-07-29T14:42:06;28.30;73.30
360;DHT22;168;48.872;9.226;2022-07-29T14:44:34;28.40;73.50
360;DHT22;168;48.872;9.226;2022-07-29T14:47:01;28.50;73.30
360;DHT22;168;48.872;9.226;2022-07-29T14:49:30;28.60;72.60
360;DHT22;168;48.872;9.226;2022-07-29T14:52:00;28.70;72.10
360;DHT22;168;48.872;9.226;2022-07-29T14:54:28;28.70;72.00
360;DHT22;168;48.872;9.226;2022-07-29T14:56:55;28.70;72.00
360;DHT22;168;48.872;9.226;2022-07-29T14:59:23;28.60;71.90
360;DHT22;168;48.872;9.226;2022-07-29T15:01:51;28.50;72.60
360;DHT22;168;48.872;9.226;2022-07-29T15:04:18;28.60;73.10
360;DHT22;168;48.872;9.226;2022-07-29T15:06:51;28.70;73.00
360;DHT22;168;48.872;9.226;2022-07-29T15:09:19;28.90;72.60
360;DHT22;168;48.872;9.226;2022-07-29T15:11:46;28.90;72.70
360;DHT22;168;48.872;9.226;2022-07-29T15:14:13;28.90;73.70
360;DHT22;168;48.872;9.226;2022-07-29T15:16:41;28.90;73.80
360;DHT22;168;48.872;9.226;2022-07-29T15:19:09;28.90;73.90
360;DHT22;168;48.872;9.226;2022-07-29T15:21:36;28.90;73.70
360;DHT22;168;48.872;9.226;2022-07-29T15:24:06;28.80;73.90
360;DHT22;168;48.872;9.226;2022-07-29T15:26:34;28.80;73.90
360;DHT22;168;48.872;9.226;2022-07-29T15:29:01;28.80;73.30
360;DHT22;168;48.872;9.226;2022-07-29T15:31:31;28.70;73.50
360;DHT22;168;48.872;9.226;2022-07-29T15:33:59;28.70;73.50
360;DHT22;168;48.872;9.226;2022-07-29T15:36:26;28.70;74.10
360;DHT22;168;48.872;9.226;2022-07-29T15:38:54;28.60;74.60
360;DHT22;168;48.872;9.226;2022-07-29T15:41:23;28.50;75.20
360;DHT22;168;48.872;9.226;2022-07-29T15:43:52;28.50;75.30
360;DHT22;168;48.872;9.226;2022-07-29T15:46:20;28.50;75.90
360;DHT22;168;48.872;9.226;2022-07-29T15:49:07;28.50;76.00
360;DHT22;168;48.872;9.226;2022-07-29T15:51:35;28.50;75.90
360;DHT22;168;48.872;9.226;2022-07-29T15:54:03;28.50;75.90
360;DHT22;168;48.872;9.226;2022-07-29T15:56:33;28.50;76.10
360;DHT22;168;48.872;9.226;2022-07-29T15:59:01;28.50;76.00
360;DHT22;168;48.872;9.226;2022-07-29T16:01:28;28.50;76.10
360;DHT22;168;48.872;9.226;2022-07-29T16:03:57;28.40;75.90
360;DHT22;168;48.872;9.226;2022-07-29T16:06:24;28.40;75.80
360;DHT22;168;48.872;9.226;2022-07-29T16:08:59;28.40;76.10
360;DHT22;168;48.872;9.226;2022-07-29T16:11:33;28.40;76.10
360;DHT22;168;48.872;9.226;2022-07-29T16:14:01;28.40;73.90
360;DHT22;168;48.872;9.226;2022-07-29T16:16:45;28.40;75.30
360;DHT22;168;48.872;9.226;2022-07-29T16:19:14;28.50;75.80
360;DHT22;168;48.872;9.226;2022-07-29T16:21:45;28.60;76.30
360;DHT22;168;48.872;9.226;2022-07-29T16:24:13;28.60;76.20
360;DHT22;168;48.872;9.226;2022-07-29T16:26:42;28.60;76.40
360;DHT22;168;48.872;9.226;2022-07-29T16:29:10;28.70;76.30
360;DHT22;168;48.872;9.226;2022-07-29T16:31:37;28.70;75.60
360;DHT22;168;48.872;9.226;2022-07-29T16:34:05;28.70;75.90
360;DHT22;168;48.872;9.226;2022-07-29T16:36:32;28.70;75.80
360;DHT22;168;48.872;9.226;2022-07-29T16:38:59;28.60;75.80
360;DHT22;168;48.872;9.226;2022-07-29T16:41:28;28.60;75.80
360;DHT22;168;48.872;9.226;2022-07-29T16:43:57;28.40;76.00
360;DHT22;168;48.872;9.226;2022-07-29T16:46:25;28.30;76.10
360;DHT22;168;48.872;9.226;2022-07-29T16:48:52;28.30;76.10
360;DHT22;168;48.872;9.226;2022-07-29T16:51:20;28.20;76.10
360;DHT22;168;48.872;9.226;2022-07-29T16:53:48;28.20;76.50
360;DHT22;168;48.872;9.226;2022-07-29T16:56:15;28.20;76.30
360;DHT22;168;48.872;9.226;2022-07-29T16:58:44;28.20;76.40
360;DHT22;168;48.872;9.226;2022-07-29T17:01:13;28.10;76.40
360;DHT22;168;48.872;9.226;2022-07-29T17:03:42;28.10;77.00
360;DHT22;168;48.872;9.226;2022-07-29T17:06:23;28.10;77.20
360;DHT22;168;48.872;9.226;2022-07-29T17:08:50;28.10;77.30
360;DHT22;168;48.872;9.226;2022-07-29T17:11:18;28.10;77.20
360;DHT22;168;48.872;9.226;2022-07-29T17:13:45;28.10;77.40
360;DHT22;168;48.872;9.226;2022-07-29T17:16:14;28.10;77.40
360;DHT22;168;48.872;9.226;2022-07-29T17:18:41;28.20;76.90
360;DHT22;168;48.872;9.226;2022-07-29T17:21:09;28.30;77.10
360;DHT22;168;48.872;9.226;2022-07-29T17:23:36;28.30;76.60
360;DHT22;168;48.872;9.226;2022-07-29T17:26:06;28.40;77.40
360;DHT22;168;48.872;9.226;2022-07-29T17:28:37;28.40;77.00
360;DHT22;168;48.872;9.226;2022-07-29T17:31:05;28.50;76.60
360;DHT22;168;48.872;9.226;2022-07-29T17:33:34;28.60;76.50
360;DHT22;168;48.872;9.226;2022-07-29T17:36:01;28.70;76.10
360;DHT22;168;48.872;9.226;2022-07-29T17:38:47;28.80;75.60
360;DHT22;168;48.872;9.226;2022-07-29T17:41:15;28.90;75.20
360;DHT22;168;48.872;9.226;2022-07-29T17:43:44;29.00;75.30
360;DHT22;168;48.872;9.226;2022-07-29T17:46:14;29.10;75.10
360;DHT22;168;48.872;9.226;2022-07-29T17:48:45;29.20;74.50
360;DHT22;168;48.872;9.226;2022-07-29T17:51:15;29.40;73.90
360;DHT22;168;48.872;9.226;2022-07-29T17:53:43;29.40;73.60
360;DHT22;168;48.872;9.226;2022-07-29T17:56:11;29.40;73.80
360;DHT22;168;48.872;9.226;2022-07-29T17:58:39;29.30;74.00
360;DHT22;168;48.872;9.226;2022-07-29T18:01:09;29.30;73.10
360;DHT22;168;48.872;9.226;2022-07-29T18:03:37;29.30;73.50
360;DHT22;168;48.872;9.226;2022-07-29T18:06:07;29.20;73.60
360;DHT22;168;48.872;9.226;2022-07-29T18:08:35;29.00;73.90